sensor_id;sensor_type;location;lat;lon;timestamp;pressure;altitude;pressure_sealevel;temperature;humidity
44441;BME280;30146;52.268;20.944;2023-01-08T00:01:06;100561.71;;;5.76;76.48
44441;BME280;30146;52.268;20.944;2023-01-08T00:03:35;100557.45;;;5.76;76.51
44441;BME280;30146;52.268;20.944;2023-01-08T00:06:06;100551.85;;;5.76;76.35
44441;BME280;30146;52.268;20.944;2023-01-08T00:08:34;100548.80;;;5.75;76.42
44441;BME280;30146;52.268;20.944;2023-01-08T00:11:03;100548.29;;;5.75;76.35
44441;BME280;30146;52.268;20.944;2023-01-08T00:13:31;100544.92;;;5.78;76.45
44441;BME280;30146;52.268;20.944;2023-01-08T00:16:03;100541.88;;;5.78;76.42
44441;BME280;30146;52.268;20.944;2023-01-08T00:18:32;100550.02;;;5.77;76.36
44441;BME280;30146;52.268;20.944;2023-01-08T00:21:00;100551.86;;;5.76;76.19
44441;BME280;30146;52.268;20.944;2023-01-08T00:23:28;100553.70;;;5.74;76.12
44441;BME280;30146;52.268;20.944;2023-01-08T00:25:59;100553.19;;;5.74;76.24
44441;BME280;30146;52.268;20.944;2023-01-08T00:28:27;100553.19;;;5.74;76.29
44441;BME280;30146;52.268;20.944;2023-01-08T00:30:55;100558.30;;;5.75;76.23
44441;BME280;30146;52.268;20.944;2023-01-08T00:33:23;100549.08;;;5.72;75.88
44441;BME280;30146;52.268;20.944;2023-01-08T00:35:52;100549.39;;;5.69;75.92
44441;BME280;30146;52.268;20.944;2023-01-08T00:38:23;100545.76;;;5.64;75.80
44441;BME280;30146;52.268;20.944;2023-01-08T00:40:51;100542.98;;;5.60;75.82
44441;BME280;30146;52.268;20.944;2023-01-08T00:43:19;100541.43;;;5.58;75.91
44441;BME280;30146;52.268;20.944;2023-01-08T00:45:47;100537.80;;;5.54;75.75
44441;BME280;30146;52.268;20.944;2023-01-08T00:48:18;100541.29;;;5.48;75.51
44441;BME280;30146;52.268;20.944;2023-01-08T00:50:46;100542.75;;;5.44;75.57
44441;BME280;30146;52.268;20.944;2023-01-08T00:53:14;100536.75;;;5.39;75.62
44441;BME280;30146;52.268;20.944;2023-01-08T00:55:42;100530.75;;;5.34;75.38
44441;BME280;30146;52.268;20.944;2023-01-08T00:58:11;100530.82;;;5.28;75.27
44441;BME280;30146;52.268;20.944;2023-01-08T01:00:39;100531.25;;;5.22;75.23
44441;BME280;30146;52.268;20.944;2023-01-08T01:03:07;100529.82;;;5.17;75.42
44441;BME280;30146;52.268;20.944;2023-01-08T01:05:35;100526.54;;;5.14;75.43
44441;BME280;30146;52.268;20.944;2023-01-08T01:08:04;100528.66;;;5.09;75.40
44441;BME280;30146;52.268;20.944;2023-01-08T01:10:32;100529.77;;;5.04;75.25
44441;BME280;30146;52.268;20.944;2023-01-08T01:13:00;100522.05;;;4.98;75.34
44441;BME280;30146;52.268;20.944;2023-01-08T01:15:28;100523.87;;;4.95;75.42
44441;BME280;30146;52.268;20.944;2023-01-08T01:17:56;100521.59;;;4.90;75.42
44441;BME280;30146;52.268;20.944;2023-01-08T01:20:24;100523.08;;;4.88;75.43
44441;BME280;30146;52.268;20.944;2023-01-08T01:22:52;100520.17;;;4.86;75.58
44441;BME280;30146;52.268;20.944;2023-01-08T01:25:20;100510.83;;;4.85;75.62
44441;BME280;30146;52.268;20.944;2023-01-08T01:27:49;100506.25;;;4.84;75.77
44441;BME280;30146;52.268;20.944;2023-01-08T01:30:17;100508.30;;;4.85;75.82
44441;BME280;30146;52.268;20.944;2023-01-08T01:32:45;100513.17;;;4.83;75.76
44441;BME280;30146;52.268;20.944;2023-01-08T01:35:13;100512.61;;;4.79;75.64
44441;BME280;30146;52.268;20.944;2023-01-08T01:37:41;100515.25;;;4.76;75.79
44441;BME280;30146;52.268;20.944;2023-01-08T01:40:10;100512.77;;;4.70;75.12
44441;BME280;30146;52.268;20.944;2023-01-08T01:42:38;100502.16;;;4.62;75.07
44441;BME280;30146;52.268;20.944;2023-01-08T01:45:15;100505.13;;;4.58;75.42
44441;BME280;30146;52.268;20.944;2023-01-08T01:47:45;100502.14;;;4.53;75.48
44441;BME280;30146;52.268;20.944;2023-01-08T01:50:16;100505.66;;;4.50;75.64
44441;BME280;30146;52.268;20.944;2023-01-08T01:52:50;100499.77;;;4.43;75.17
44441;BME280;30146;52.268;20.944;2023-01-08T01:55:22;100492.55;;;4.36;75.36
44441;BME280;30146;52.268;20.944;2023-01-08T01:57:56;100486.55;;;4.32;75.51
44441;BME280;30146;52.268;20.944;2023-01-08T02:00:28;100485.50;;;4.30;75.79
44441;BME280;30146;52.268;20.944;2023-01-08T02:02:57;100480.35;;;4.26;75.72
44441;BME280;30146;52.268;20.944;2023-01-08T02:05:28;100484.20;;;4.24;75.86
44441;BME280;30146;52.268;20.944;2023-01-08T02:08:05;100480.95;;;4.22;76.01
44441;BME280;30146;52.268;20.944;2023-01-08T02:10:39;100472.33;;;4.22;75.84
44441;BME280;30146;52.268;20.944;2023-01-08T02:13:13;100474.06;;;4.25;75.94
44441;BME280;30146;52.268;20.944;2023-01-08T02:15:52;100466.33;;;4.28;76.01
44441;BME280;30146;52.268;20.944;2023-01-08T02:18:28;100462.96;;;4.29;76.53
44441;BME280;30146;52.268;20.944;2023-01-08T02:21:04;100461.94;;;4.28;76.28
44441;BME280;30146;52.268;20.944;2023-01-08T02:23:43;100461.12;;;4.30;76.40
44441;BME280;30146;52.268;20.944;2023-01-08T02:26:15;100457.09;;;4.31;76.55
44441;BME280;30146;52.268;20.944;2023-01-08T02:28:47;100460.67;;;4.33;76.66
44441;BME280;30146;52.268;20.944;2023-01-08T02:31:19;100454.27;;;4.34;76.56
44441;BME280;30146;52.268;20.944;2023-01-08T02:33:48;100457.55;;;4.38;76.93
44441;BME280;30146;52.268;20.944;2023-01-08T02:36:32;100455.73;;;4.41;76.61
44441;BME280;30146;52.268;20.944;2023-01-08T02:39:28;100451.50;;;4.40;76.45
44441;BME280;30146;52.268;20.944;2023-01-08T02:42:12;100452.38;;;4.42;76.37
44441;BME280;30146;52.268;20.944;2023-01-08T02:44:53;100446.80;;;4.42;76.48
44441;BME280;30146;52.268;20.944;2023-01-08T02:47:25;100443.95;;;4.44;76.59
44441;BME280;30146;52.268;20.944;2023-01-08T02:50:02;100444.17;;;4.48;76.64
44441;BME280;30146;52.268;20.944;2023-01-08T02:52:35;100444.24;;;4.51;76.43
44441;BME280;30146;52.268;20.944;2023-01-08T02:55:05;100444.95;;;4.53;76.63
44441;BME280;30146;52.268;20.944;2023-01-08T02:57:34;100441.44;;;4.56;76.49
44441;BME280;30146;52.268;20.944;2023-01-08T03:00:05;100444.15;;;4.56;76.41
44441;BME280;30146;52.268;20.944;2023-01-08T03:02:35;100441.80;;;4.56;76.44
44441;BME280;30146;52.268;20.944;2023-01-08T03:05:12;100448.52;;;4.54;75.97
44441;BME280;30146;52.268;20.944;2023-01-08T03:07:41;100433.02;;;4.49;76.16
44441;BME280;30146;52.268;20.944;2023-01-08T03:10:10;100432.26;;;4.43;75.89
44441;BME280;30146;52.268;20.944;2023-01-08T03:12:49;100433.55;;;4.40;75.76
44441;BME280;30146;52.268;20.944;2023-01-08T03:15:24;100437.03;;;4.36;75.99
44441;BME280;30146;52.268;20.944;2023-01-08T03:18:00;100427.83;;;4.32;75.99
44441;BME280;30146;52.268;20.944;2023-01-08T03:20:30;100423.06;;;4.30;76.28
44441;BME280;30146;52.268;20.944;2023-01-08T03:23:01;100421.99;;;4.27;76.15
44441;BME280;30146;52.268;20.944;2023-01-08T03:25:34;100417.50;;;4.21;76.14
44441;BME280;30146;52.268;20.944;2023-01-08T03:28:09;100416.02;;;4.15;75.89
44441;BME280;30146;52.268;20.944;2023-01-08T03:30:40;100416.63;;;4.10;75.83
44441;BME280;30146;52.268;20.944;2023-01-08T03:33:10;100418.25;;;4.07;75.68
44441;BME280;30146;52.268;20.944;2023-01-08T03:35:41;100418.05;;;4.05;75.93
44441;BME280;30146;52.268;20.944;2023-01-08T03:38:14;100416.02;;;4.05;76.08
44441;BME280;30146;52.268;20.944;2023-01-08T03:40:45;100414.80;;;4.03;75.86
44441;BME280;30146;52.268;20.944;2023-01-08T03:43:15;100408.45;;;3.98;75.73
44441;BME280;30146;52.268;20.944;2023-01-08T03:45:47;100413.08;;;3.92;75.49
44441;BME280;30146;52.268;20.944;2023-01-08T03:48:18;100414.17;;;3.88;75.55
44441;BME280;30146;52.268;20.944;2023-01-08T03:50:47;100415.98;;;3.85;75.57
44441;BME280;30146;52.268;20.944;2023-01-08T03:53:15;100415.11;;;3.83;75.80
44441;BME280;30146;52.268;20.944;2023-01-08T03:55:44;100413.91;;;3.82;75.87
44441;BME280;30146;52.268;20.944;2023-01-08T03:58:12;100413.40;;;3.82;76.16
44441;BME280;30146;52.268;20.944;2023-01-08T04:00:40;100414.38;;;3.81;75.90
44441;BME280;30146;52.268;20.944;2023-01-08T04:03:08;100414.34;;;3.78;75.85
44441;BME280;30146;52.268;20.944;2023-01-08T04:05:37;100415.17;;;3.78;75.75
44441;BME280;30146;52.268;20.944;2023-01-08T04:08:05;100418.21;;;3.77;76.01
44441;BME280;30146;52.268;20.944;2023-01-08T04:10:33;100412.88;;;3.73;75.85
44441;BME280;30146;52.268;20.944;2023-01-08T04:13:01;100413.48;;;3.70;75.88
44441;BME280;30146;52.268;20.944;2023-01-08T04:15:29;100416.64;;;3.67;75.82
44441;BME280;30146;52.268;20.944;2023-01-08T04:17:57;100424.20;;;3.64;76.27
44441;BME280;30146;52.268;20.944;2023-01-08T04:20:25;100422.48;;;3.63;76.04
44441;BME280;30146;52.268;20.944;2023-01-08T04:22:53;100430.10;;;3.63;75.88
44441;BME280;30146;52.268;20.944;2023-01-08T04:25:21;100424.80;;;3.61;75.96
44441;BME280;30146;52.268;20.944;2023-01-08T04:27:50;100417.67;;;3.59;76.01
44441;BME280;30146;52.268;20.944;2023-01-08T04:30:18;100411.39;;;3.57;75.90
44441;BME280;30146;52.268;20.944;2023-01-08T04:32:46;100405.23;;;3.54;76.05
44441;BME280;30146;52.268;20.944;2023-01-08T04:35:14;100401.19;;;3.55;76.20
44441;BME280;30146;52.268;20.944;2023-01-08T04:37:42;100397.66;;;3.55;76.58
44441;BME280;30146;52.268;20.944;2023-01-08T04:40:11;100396.81;;;3.55;76.26
44441;BME280;30146;52.268;20.944;2023-01-08T04:42:39;100394.55;;;3.52;76.10
44441;BME280;30146;52.268;20.944;2023-01-08T04:45:09;100395.51;;;3.49;75.95
44441;BME280;30146;52.268;20.944;2023-01-08T04:47:37;100402.70;;;3.46;76.07
44441;BME280;30146;52.268;20.944;2023-01-08T04:50:06;100400.59;;;3.41;75.95
44441;BME280;30146;52.268;20.944;2023-01-08T04:52:35;100402.02;;;3.37;75.84
44441;BME280;30146;52.268;20.944;2023-01-08T04:55:04;100398.26;;;3.35;76.11
44441;BME280;30146;52.268;20.944;2023-01-08T04:57:32;100396.17;;;3.32;75.97
44441;BME280;30146;52.268;20.944;2023-01-08T05:00:00;100396.63;;;3.30;76.34
44441;BME280;30146;52.268;20.944;2023-01-08T05:02:28;100400.10;;;3.26;76.21
44441;BME280;30146;52.268;20.944;2023-01-08T05:04:57;100395.64;;;3.23;76.51
44441;BME280;30146;52.268;20.944;2023-01-08T05:07:25;100402.56;;;3.23;76.67
44441;BME280;30146;52.268;20.944;2023-01-08T05:09:53;100395.77;;;3.21;76.70
44441;BME280;30146;52.268;20.944;2023-01-08T05:12:21;100386.58;;;3.17;76.57
44441;BME280;30146;52.268;20.944;2023-01-08T05:14:49;100390.30;;;3.17;76.85
44441;BME280;30146;52.268;20.944;2023-01-08T05:17:17;100388.45;;;3.18;76.98
44441;BME280;30146;52.268;20.944;2023-01-08T05:19:45;100387.65;;;3.20;77.01
44441;BME280;30146;52.268;20.944;2023-01-08T05:22:13;100385.67;;;3.22;76.78
44441;BME280;30146;52.268;20.944;2023-01-08T05:24:41;100382.64;;;3.23;77.05
44441;BME280;30146;52.268;20.944;2023-01-08T05:27:09;100381.11;;;3.23;77.17
44441;BME280;30146;52.268;20.944;2023-01-08T05:29:37;100384.98;;;3.22;76.87
44441;BME280;30146;52.268;20.944;2023-01-08T05:32:14;100374.12;;;3.20;77.23
44441;BME280;30146;52.268;20.944;2023-01-08T05:34:42;100384.23;;;3.19;77.01
44441;BME280;30146;52.268;20.944;2023-01-08T05:37:10;100385.54;;;3.17;76.98
44441;BME280;30146;52.268;20.944;2023-01-08T05:39:39;100378.42;;;3.15;76.93
44441;BME280;30146;52.268;20.944;2023-01-08T05:42:07;100384.63;;;3.13;76.83
44441;BME280;30146;52.268;20.944;2023-01-08T05:44:35;100381.55;;;3.12;76.74
44441;BME280;30146;52.268;20.944;2023-01-08T05:47:03;100384.40;;;3.10;77.31
44441;BME280;30146;52.268;20.944;2023-01-08T05:49:31;100370.88;;;3.10;76.94
44441;BME280;30146;52.268;20.944;2023-01-08T05:51:59;100370.49;;;3.07;76.94
44441;BME280;30146;52.268;20.944;2023-01-08T05:54:27;100373.38;;;3.08;76.87
44441;BME280;30146;52.268;20.944;2023-01-08T05:56:55;100372.36;;;3.08;76.81
44441;BME280;30146;52.268;20.944;2023-01-08T05:59:23;100369.80;;;3.06;76.83
44441;BME280;30146;52.268;20.944;2023-01-08T06:01:51;100371.65;;;3.06;76.91
44441;BME280;30146;52.268;20.944;2023-01-08T06:04:19;100370.98;;;3.06;77.07
44441;BME280;30146;52.268;20.944;2023-01-08T06:06:47;100363.40;;;3.07;77.09
44441;BME280;30146;52.268;20.944;2023-01-08T06:09:16;100369.64;;;3.07;76.96
44441;BME280;30146;52.268;20.944;2023-01-08T06:11:45;100363.90;;;3.07;77.00
44441;BME280;30146;52.268;20.944;2023-01-08T06:14:15;100364.94;;;3.08;77.40
44441;BME280;30146;52.268;20.944;2023-01-08T06:16:43;100369.83;;;3.08;76.96
44441;BME280;30146;52.268;20.944;2023-01-08T06:19:12;100371.14;;;3.06;76.75
44441;BME280;30146;52.268;20.944;2023-01-08T06:21:40;100372.43;;;3.03;76.72
44441;BME280;30146;52.268;20.944;2023-01-08T06:24:08;100368.47;;;3.00;76.64
44441;BME280;30146;52.268;20.944;2023-01-08T06:26:36;100371.42;;;2.96;76.62
44441;BME280;30146;52.268;20.944;2023-01-08T06:29:04;100364.27;;;2.93;76.50
44441;BME280;30146;52.268;20.944;2023-01-08T06:31:33;100358.96;;;2.89;76.75
44441;BME280;30146;52.268;20.944;2023-01-08T06:34:01;100354.19;;;2.88;76.89
44441;BME280;30146;52.268;20.944;2023-01-08T06:36:29;100353.48;;;2.86;76.98
44441;BME280;30146;52.268;20.944;2023-01-08T06:38:57;100345.52;;;2.85;76.95
44441;BME280;30146;52.268;20.944;2023-01-08T06:41:25;100345.33;;;2.83;77.03
44441;BME280;30146;52.268;20.944;2023-01-08T06:43:53;100348.91;;;2.85;76.98
44441;BME280;30146;52.268;20.944;2023-01-08T06:46:21;100344.70;;;2.86;77.05
44441;BME280;30146;52.268;20.944;2023-01-08T06:48:50;100343.36;;;2.86;77.14
44441;BME280;30146;52.268;20.944;2023-01-08T06:51:18;100340.16;;;2.87;77.33
44441;BME280;30146;52.268;20.944;2023-01-08T06:53:47;100342.23;;;2.88;77.12
44441;BME280;30146;52.268;20.944;2023-01-08T06:56:15;100331.23;;;2.88;77.34
44441;BME280;30146;52.268;20.944;2023-01-08T06:58:44;100330.39;;;2.88;77.18
44441;BME280;30146;52.268;20.944;2023-01-08T07:01:14;100339.35;;;2.88;76.95
44441;BME280;30146;52.268;20.944;2023-01-08T07:03:43;100330.91;;;2.88;76.79
44441;BME280;30146;52.268;20.944;2023-01-08T07:06:14;100335.98;;;2.89;77.01
44441;BME280;30146;52.268;20.944;2023-01-08T07:08:43;100327.56;;;2.90;77.27
44441;BME280;30146;52.268;20.944;2023-01-08T07:11:12;100331.84;;;2.93;77.17
44441;BME280;30146;52.268;20.944;2023-01-08T07:13:40;100330.17;;;2.94;77.15
44441;BME280;30146;52.268;20.944;2023-01-08T07:16:11;100329.17;;;2.94;77.20
44441;BME280;30146;52.268;20.944;2023-01-08T07:18:39;100324.77;;;2.94;77.18
44441;BME280;30146;52.268;20.944;2023-01-08T07:21:08;100324.27;;;2.94;76.82
44441;BME280;30146;52.268;20.944;2023-01-08T07:23:36;100316.18;;;2.95;76.84
44441;BME280;30146;52.268;20.944;2023-01-08T07:26:06;100311.81;;;2.96;76.96
44441;BME280;30146;52.268;20.944;2023-01-08T07:28:34;100318.91;;;2.97;76.94
44441;BME280;30146;52.268;20.944;2023-01-08T07:31:04;100310.97;;;2.96;77.00
44441;BME280;30146;52.268;20.944;2023-01-08T07:33:32;100310.48;;;2.97;76.87
44441;BME280;30146;52.268;20.944;2023-01-08T07:36:01;100304.94;;;2.98;77.01
44441;BME280;30146;52.268;20.944;2023-01-08T07:38:29;100303.23;;;2.98;76.51
44441;BME280;30146;52.268;20.944;2023-01-08T07:40:57;100301.70;;;2.97;76.71
44441;BME280;30146;52.268;20.944;2023-01-08T07:43:25;100292.25;;;2.97;76.75
44441;BME280;30146;52.268;20.944;2023-01-08T07:45:56;100300.54;;;2.98;76.67
44441;BME280;30146;52.268;20.944;2023-01-08T07:48:24;100290.69;;;2.96;76.69
44441;BME280;30146;52.268;20.944;2023-01-08T07:50:52;100292.54;;;2.95;76.62
44441;BME280;30146;52.268;20.944;2023-01-08T07:53:20;100291.52;;;2.95;76.72
44441;BME280;30146;52.268;20.944;2023-01-08T07:55:48;100288.13;;;2.94;76.62
44441;BME280;30146;52.268;20.944;2023-01-08T07:58:17;100293.19;;;2.93;76.56
44441;BME280;30146;52.268;20.944;2023-01-08T08:00:44;100299.94;;;2.93;76.73
44441;BME280;30146;52.268;20.944;2023-01-08T08:03:12;100294.16;;;2.92;76.62
44441;BME280;30146;52.268;20.944;2023-01-08T08:05:40;100287.61;;;2.93;76.44
44441;BME280;30146;52.268;20.944;2023-01-08T08:08:10;100289.62;;;2.92;76.53
44441;BME280;30146;52.268;20.944;2023-01-08T08:10:39;100292.13;;;2.91;76.49
44441;BME280;30146;52.268;20.944;2023-01-08T08:13:08;100295.33;;;2.91;76.65
44441;BME280;30146;52.268;20.944;2023-01-08T08:15:38;100291.15;;;2.93;76.80
44441;BME280;30146;52.268;20.944;2023-01-08T08:18:06;100290.84;;;2.95;76.72
44441;BME280;30146;52.268;20.944;2023-01-08T08:20:35;100294.39;;;2.94;76.57
44441;BME280;30146;52.268;20.944;2023-01-08T08:23:05;100294.08;;;2.95;76.70
44441;BME280;30146;52.268;20.944;2023-01-08T08:25:34;100288.19;;;2.97;76.58
44441;BME280;30146;52.268;20.944;2023-01-08T08:28:02;100288.20;;;2.98;76.57
44441;BME280;30146;52.268;20.944;2023-01-08T08:30:32;100281.11;;;2.97;76.41
44441;BME280;30146;52.268;20.944;2023-01-08T08:33:03;100277.02;;;2.96;76.62
44441;BME280;30146;52.268;20.944;2023-01-08T08:35:33;100272.14;;;2.97;76.46
44441;BME280;30146;52.268;20.944;2023-01-08T08:38:01;100271.70;;;2.99;76.52
44441;BME280;30146;52.268;20.944;2023-01-08T08:40:29;100265.96;;;2.99;76.37
44441;BME280;30146;52.268;20.944;2023-01-08T08:42:58;100262.20;;;2.97;76.41
44441;BME280;30146;52.268;20.944;2023-01-08T08:45:27;100260.34;;;2.98;76.52
44441;BME280;30146;52.268;20.944;2023-01-08T08:47:56;100264.45;;;3.00;76.54
44441;BME280;30146;52.268;20.944;2023-01-08T08:50:24;100260.48;;;3.03;76.65
44441;BME280;30146;52.268;20.944;2023-01-08T08:52:57;100266.23;;;3.05;76.56
44441;BME280;30146;52.268;20.944;2023-01-08T08:55:25;100252.80;;;3.09;76.59
44441;BME280;30146;52.268;20.944;2023-01-08T08:57:53;100244.23;;;3.12;76.50
44441;BME280;30146;52.268;20.944;2023-01-08T09:00:21;100251.72;;;3.14;76.44
44441;BME280;30146;52.268;20.944;2023-01-08T09:02:50;100253.11;;;3.16;76.65
44441;BME280;30146;52.268;20.944;2023-01-08T09:05:18;100254.00;;;3.18;76.32
44441;BME280;30146;52.268;20.944;2023-01-08T09:07:47;100252.14;;;3.18;76.30
44441;BME280;30146;52.268;20.944;2023-01-08T09:10:15;100263.66;;;3.20;76.35
44441;BME280;30146;52.268;20.944;2023-01-08T09:12:43;100264.04;;;3.22;76.30
44441;BME280;30146;52.268;20.944;2023-01-08T09:15:11;100264.73;;;3.22;76.10
44441;BME280;30146;52.268;20.944;2023-01-08T09:17:39;100263.91;;;3.24;76.19
44441;BME280;30146;52.268;20.944;2023-01-08T09:20:09;100266.34;;;3.27;76.32
44441;BME280;30146;52.268;20.944;2023-01-08T09:22:37;100256.76;;;3.31;76.24
44441;BME280;30146;52.268;20.944;2023-01-08T09:25:06;100254.45;;;3.34;76.42
44441;BME280;30146;52.268;20.944;2023-01-08T09:27:34;100250.79;;;3.36;76.38
44441;BME280;30146;52.268;20.944;2023-01-08T09:30:03;100248.79;;;3.38;76.10
44441;BME280;30146;52.268;20.944;2023-01-08T09:32:31;100241.39;;;3.40;76.27
44441;BME280;30146;52.268;20.944;2023-01-08T09:34:59;100237.05;;;3.43;76.15
44441;BME280;30146;52.268;20.944;2023-01-08T09:37:27;100238.31;;;3.47;76.13
44441;BME280;30146;52.268;20.944;2023-01-08T09:39:55;100238.08;;;3.54;76.25
44441;BME280;30146;52.268;20.944;2023-01-08T09:42:30;100232.30;;;3.61;76.42
44441;BME280;30146;52.268;20.944;2023-01-08T09:44:59;100230.20;;;3.68;76.11
44441;BME280;30146;52.268;20.944;2023-01-08T09:47:31;100224.89;;;3.73;75.94
44441;BME280;30146;52.268;20.944;2023-01-08T09:50:08;100215.35;;;3.79;76.16
44441;BME280;30146;52.268;20.944;2023-01-08T09:52:38;100214.41;;;3.83;75.75
44441;BME280;30146;52.268;20.944;2023-01-08T09:55:12;100209.21;;;3.87;76.07
44441;BME280;30146;52.268;20.944;2023-01-08T09:57:41;100210.64;;;3.91;75.68
44441;BME280;30146;52.268;20.944;2023-01-08T10:00:15;100205.78;;;3.94;75.37
44441;BME280;30146;52.268;20.944;2023-01-08T10:02:44;100208.72;;;3.99;75.48
44441;BME280;30146;52.268;20.944;2023-01-08T10:05:14;100208.47;;;4.04;75.47
44441;BME280;30146;52.268;20.944;2023-01-08T10:07:43;100202.27;;;4.09;75.49
44441;BME280;30146;52.268;20.944;2023-01-08T10:10:18;100191.85;;;4.14;75.23
44441;BME280;30146;52.268;20.944;2023-01-08T10:12:48;100190.38;;;4.17;75.06
44441;BME280;30146;52.268;20.944;2023-01-08T10:15:18;100192.11;;;4.20;74.97
44441;BME280;30146;52.268;20.944;2023-01-08T10:17:50;100193.53;;;4.25;75.08
44441;BME280;30146;52.268;20.944;2023-01-08T10:20:21;100192.41;;;4.30;75.06
44441;BME280;30146;52.268;20.944;2023-01-08T10:22:51;100193.12;;;4.32;74.97
44441;BME280;30146;52.268;20.944;2023-01-08T10:25:21;100181.84;;;4.37;74.93
44441;BME280;30146;52.268;20.944;2023-01-08T10:27:51;100176.62;;;4.38;74.48
44441;BME280;30146;52.268;20.944;2023-01-08T10:30:21;100168.19;;;4.40;74.91
44441;BME280;30146;52.268;20.944;2023-01-08T10:32:52;100161.96;;;4.44;74.81
44441;BME280;30146;52.268;20.944;2023-01-08T10:35:23;100163.16;;;4.45;74.38
44441;BME280;30146;52.268;20.944;2023-01-08T10:37:56;100163.32;;;4.44;74.26
44441;BME280;30146;52.268;20.944;2023-01-08T10:40:29;100163.32;;;4.44;74.66
44441;BME280;30146;52.268;20.944;2023-01-08T10:43:06;100156.73;;;4.43;74.25
44441;BME280;30146;52.268;20.944;2023-01-08T10:45:34;100150.08;;;4.39;73.72
44441;BME280;30146;52.268;20.944;2023-01-08T10:48:05;100142.40;;;4.35;73.71
44441;BME280;30146;52.268;20.944;2023-01-08T10:50:34;100138.27;;;4.30;73.47
44441;BME280;30146;52.268;20.944;2023-01-08T10:53:04;100130.89;;;4.22;73.36
44441;BME280;30146;52.268;20.944;2023-01-08T10:55:34;100129.48;;;4.18;73.56
44441;BME280;30146;52.268;20.944;2023-01-08T10:58:12;100117.14;;;4.18;73.78
44441;BME280;30146;52.268;20.944;2023-01-08T11:00:40;100112.11;;;4.22;73.93
44441;BME280;30146;52.268;20.944;2023-01-08T11:03:19;100119.41;;;4.24;73.59
44441;BME280;30146;52.268;20.944;2023-01-08T11:05:50;100110.45;;;4.24;73.78
44441;BME280;30146;52.268;20.944;2023-01-08T11:08:20;100111.65;;;4.25;73.36
44441;BME280;30146;52.268;20.944;2023-01-08T11:10:55;100111.64;;;4.26;73.45
44441;BME280;30146;52.268;20.944;2023-01-08T11:13:24;100114.71;;;4.27;73.49
44441;BME280;30146;52.268;20.944;2023-01-08T11:16:02;100118.76;;;4.25;73.30
44441;BME280;30146;52.268;20.944;2023-01-08T11:18:30;100108.61;;;4.26;73.35
44441;BME280;30146;52.268;20.944;2023-01-08T11:21:08;100107.77;;;4.27;73.19
44441;BME280;30146;52.268;20.944;2023-01-08T11:23:37;100110.83;;;4.27;73.30
44441;BME280;30146;52.268;20.944;2023-01-08T11:26:09;100113.52;;;4.25;73.60
44441;BME280;30146;52.268;20.944;2023-01-08T11:28:46;100118.02;;;4.22;72.92
44441;BME280;30146;52.268;20.944;2023-01-08T11:31:22;100108.67;;;4.18;72.94
44441;BME280;30146;52.268;20.944;2023-01-08T11:34:06;100105.92;;;4.15;72.97
44441;BME280;30146;52.268;20.944;2023-01-08T11:36:46;100104.52;;;4.11;72.76
44441;BME280;30146;52.268;20.944;2023-01-08T11:39:16;100098.57;;;4.08;72.81
44441;BME280;30146;52.268;20.944;2023-01-08T11:42:06;100100.44;;;4.08;73.39
44441;BME280;30146;52.268;20.944;2023-01-08T11:44:42;100099.73;;;4.06;72.71
44441;BME280;30146;52.268;20.944;2023-01-08T11:47:18;100085.64;;;4.02;72.66
44441;BME280;30146;52.268;20.944;2023-01-08T11:50:11;100083.80;;;4.03;73.05
44441;BME280;30146;52.268;20.944;2023-01-08T11:52:47;100095.34;;;4.06;72.92
44441;BME280;30146;52.268;20.944;2023-01-08T11:55:27;100104.12;;;4.06;72.74
44441;BME280;30146;52.268;20.944;2023-01-08T11:58:09;100100.25;;;4.08;73.19
44441;BME280;30146;52.268;20.944;2023-01-08T12:00:51;100091.84;;;4.11;73.11
44441;BME280;30146;52.268;20.944;2023-01-08T12:03:29;100097.11;;;4.13;72.97
44441;BME280;30146;52.268;20.944;2023-01-08T12:06:07;100084.40;;;4.11;72.48
44441;BME280;30146;52.268;20.944;2023-01-08T12:08:44;100076.92;;;4.08;72.47
44441;BME280;30146;52.268;20.944;2023-01-08T12:11:19;100080.10;;;4.05;72.29
44441;BME280;30146;52.268;20.944;2023-01-08T12:14:02;100084.27;;;4.00;72.37
44441;BME280;30146;52.268;20.944;2023-01-08T12:16:54;100092.80;;;3.94;72.08
44441;BME280;30146;52.268;20.944;2023-01-08T12:19:35;100093.13;;;3.93;72.45
44441;BME280;30146;52.268;20.944;2023-01-08T12:22:24;100076.75;;;3.94;72.59
44441;BME280;30146;52.268;20.944;2023-01-08T12:28:01;100074.52;;;3.91;72.30
44441;BME280;30146;52.268;20.944;2023-01-08T12:30:39;100076.88;;;3.91;72.74
44441;BME280;30146;52.268;20.944;2023-01-08T12:33:21;100075.02;;;3.91;72.53
44441;BME280;30146;52.268;20.944;2023-01-08T12:35:57;100078.39;;;3.90;72.35
44441;BME280;30146;52.268;20.944;2023-01-08T12:38:29;100076.65;;;3.87;72.43
44441;BME280;30146;52.268;20.944;2023-01-08T12:41:02;100076.63;;;3.85;72.11
44441;BME280;30146;52.268;20.944;2023-01-08T12:43:39;100074.77;;;3.85;72.39
44441;BME280;30146;52.268;20.944;2023-01-08T12:46:12;100069.23;;;3.88;72.88
44441;BME280;30146;52.268;20.944;2023-01-08T12:48:45;100070.27;;;3.91;72.76
44441;BME280;30146;52.268;20.944;2023-01-08T12:51:22;100073.02;;;3.93;72.81
44441;BME280;30146;52.268;20.944;2023-01-08T12:53:57;100076.21;;;3.92;72.55
44441;BME280;30146;52.268;20.944;2023-01-08T12:56:36;100067.71;;;3.89;72.03
44441;BME280;30146;52.268;20.944;2023-01-08T12:59:16;100061.92;;;3.85;72.51
44441;BME280;30146;52.268;20.944;2023-01-08T13:01:51;100065.77;;;3.82;72.28
44441;BME280;30146;52.268;20.944;2023-01-08T13:04:21;100074.48;;;3.77;72.19
44441;BME280;30146;52.268;20.944;2023-01-08T13:06:51;100072.55;;;3.72;72.04
44441;BME280;30146;52.268;20.944;2023-01-08T13:09:23;100067.45;;;3.69;71.99
44441;BME280;30146;52.268;20.944;2023-01-08T13:11:54;100073.84;;;3.66;72.19